sensor_id;sensor_type;location;lat;lon;timestamp;pressure;altitude;pressure_sealevel;temperature;humidity
16821;BME280;8527;49.740;6.604;2022-09-03T00:00:11;99225.16;;;18.40;58.95
16821;BME280;8527;49.740;6.604;2022-09-03T00:05:22;99224.59;;;18.38;58.18
16821;BME280;8527;49.740;6.604;2022-09-03T00:10:27;99225.16;;;18.40;58.83
16821;BME280;8527;49.740;6.604;2022-09-03T00:15:29;99228.91;;;18.39;58.95
16821;BME280;8527;49.740;6.604;2022-09-03T00:20:39;99224.59;;;18.38;59.36
16821;BME280;8527;49.740;6.604;2022-09-03T00:25:41;99219.00;;;18.40;58.90
16821;BME280;8527;49.740;6.604;2022-09-03T00:30:40;99217.59;;;18.37;59.65
16821;BME280;8527;49.740;6.604;2022-09-03T00:35:48;99212.69;;;18.34;59.77
16821;BME280;8527;49.740;6.604;2022-09-03T00:41:06;99212.69;;;18.34;59.43
16821;BME280;8527;49.740;6.604;2022-09-03T00:46:12;99218.97;;;18.28;58.73
16821;BME280;8527;49.740;6.604;2022-09-03T00:51:23;99215.97;;;18.36;57.76
16821;BME280;8527;49.740;6.604;2022-09-03T00:56:29;99216.75;;;18.25;59.53
16821;BME280;8527;49.740;6.604;2022-09-03T01:01:40;99211.75;;;18.28;58.62
16821;BME280;8527;49.740;6.604;2022-09-03T01:06:51;99214.88;;;18.25;60.15
16821;BME280;8527;49.740;6.604;2022-09-03T01:12:00;99216.50;;;18.26;58.23
16821;BME280;8527;49.740;6.604;2022-09-03T01:17:16;99215.81;;;18.31;59.85
16821;BME280;8527;49.740;6.604;2022-09-03T01:22:39;99212.56;;;18.29;60.93
16821;BME280;8527;49.740;6.604;2022-09-03T01:28:09;99216.63;;;18.20;60.10
16821;BME280;8527;49.740;6.604;2022-09-03T01:33:20;99212.19;;;18.25;60.58
16821;BME280;8527;49.740;6.604;2022-09-03T01:38:29;99216.31;;;18.16;59.93
16821;BME280;8527;49.740;6.604;2022-09-03T01:43:42;99222.34;;;18.23;60.45
16821;BME280;8527;49.740;6.604;2022-09-03T01:48:51;99218.41;;;18.26;60.85
16821;BME280;8527;49.740;6.604;2022-09-03T01:54:05;99217.34;;;18.27;58.05
16821;BME280;8527;49.740;6.604;2022-09-03T01:59:19;99221.66;;;18.28;60.99
16821;BME280;8527;49.740;6.604;2022-09-03T02:04:27;99214.78;;;18.20;61.89
16821;BME280;8527;49.740;6.604;2022-09-03T02:09:26;99217.56;;;18.13;62.21
16821;BME280;8527;49.740;6.604;2022-09-03T02:14:30;99216.75;;;18.13;62.97
16821;BME280;8527;49.740;6.604;2022-09-03T02:19:29;99212.41;;;18.12;61.88
16821;BME280;8527;49.740;6.604;2022-09-03T02:24:33;99221.78;;;18.09;64.32
16821;BME280;8527;49.740;6.604;2022-09-03T02:29:34;99222.47;;;18.05;66.08
16821;BME280;8527;49.740;6.604;2022-09-03T02:34:33;99224.09;;;18.06;69.34
16821;BME280;8527;49.740;6.604;2022-09-03T02:39:38;99227.66;;;17.99;71.03
16821;BME280;8527;49.740;6.604;2022-09-03T02:44:51;99224.69;;;17.77;74.39
16821;BME280;8527;49.740;6.604;2022-09-03T02:49:50;99222.13;;;17.70;72.69
16821;BME280;8527;49.740;6.604;2022-09-03T02:54:48;99221.06;;;17.41;78.22
16821;BME280;8527;49.740;6.604;2022-09-03T02:59:55;99212.75;;;17.30;77.06
16821;BME280;8527;49.740;6.604;2022-09-03T03:04:54;99212.66;;;17.07;78.51
16821;BME280;8527;49.740;6.604;2022-09-03T03:09:52;99212.19;;;17.10;83.61
16821;BME280;8527;49.740;6.604;2022-09-03T03:14:53;99204.13;;;16.91;79.25
16821;BME280;8527;49.740;6.604;2022-09-03T03:20:02;99210.31;;;17.10;79.23
16821;BME280;8527;49.740;6.604;2022-09-03T03:25:05;99206.31;;;17.01;77.26
16821;BME280;8527;49.740;6.604;2022-09-03T03:30:11;99205.19;;;17.09;82.37
16821;BME280;8527;49.740;6.604;2022-09-03T03:35:09;99205.34;;;16.95;82.53
16821;BME280;8527;49.740;6.604;2022-09-03T03:40:10;99212.69;;;17.00;78.45
16821;BME280;8527;49.740;6.604;2022-09-03T03:45:11;99216.47;;;16.92;83.90
16821;BME280;8527;49.740;6.604;2022-09-03T03:50:16;99220.94;;;16.80;84.58
16821;BME280;8527;49.740;6.604;2022-09-03T03:55:20;99217.66;;;16.78;82.97
16821;BME280;8527;49.740;6.604;2022-09-03T04:00:25;99220.28;;;16.84;86.65
16821;BME280;8527;49.740;6.604;2022-09-03T04:05:23;99219.31;;;16.79;82.46
16821;BME280;8527;49.740;6.604;2022-09-03T04:10:22;99221.78;;;16.80;85.04
16821;BME280;8527;49.740;6.604;2022-09-03T04:15:20;99227.25;;;16.85;86.05
16821;BME280;8527;49.740;6.604;2022-09-03T04:20:24;99224.34;;;16.68;84.93
16821;BME280;8527;49.740;6.604;2022-09-03T04:25:29;99222.81;;;16.79;87.43
16821;BME280;8527;49.740;6.604;2022-09-03T04:30:27;99215.72;;;16.66;82.70
16821;BME280;8527;49.740;6.604;2022-09-03T04:35:28;99217.75;;;16.71;83.41
16821;BME280;8527;49.740;6.604;2022-09-03T04:40:34;99223.41;;;16.63;85.68
16821;BME280;8527;49.740;6.604;2022-09-03T04:45:33;99227.63;;;16.52;83.30
16821;BME280;8527;49.740;6.604;2022-09-03T04:50:36;99232.53;;;16.55;84.33
16821;BME280;8527;49.740;6.604;2022-09-03T04:55:36;99228.81;;;16.56;84.13
16821;BME280;8527;49.740;6.604;2022-09-03T05:00:35;99234.59;;;16.53;80.62
16821;BME280;8527;49.740;6.604;2022-09-03T05:05:36;99240.34;;;16.56;83.55
16821;BME280;8527;49.740;6.604;2022-09-03T05:10:47;99228.44;;;16.52;86.94
16821;BME280;8527;49.740;6.604;2022-09-03T05:15:52;99227.16;;;16.55;85.52
16821;BME280;8527;49.740;6.604;2022-09-03T05:20:59;99229.09;;;16.48;84.14
16821;BME280;8527;49.740;6.604;2022-09-03T05:26:08;99238.97;;;16.47;85.16
16821;BME280;8527;49.740;6.604;2022-09-03T05:31:11;99247.19;;;16.52;83.41
16821;BME280;8527;49.740;6.604;2022-09-03T05:36:16;99246.09;;;16.60;83.46
16821;BME280;8527;49.740;6.604;2022-09-03T05:41:17;99248.91;;;16.65;82.64
16821;BME280;8527;49.740;6.604;2022-09-03T05:46:16;99250.66;;;16.53;85.70
16821;BME280;8527;49.740;6.604;2022-09-03T05:51:18;99255.22;;;16.52;82.59
16821;BME280;8527;49.740;6.604;2022-09-03T05:56:18;99248.25;;;16.70;82.10
16821;BME280;8527;49.740;6.604;2022-09-03T06:01:21;99252.88;;;16.81;83.53
16821;BME280;8527;49.740;6.604;2022-09-03T06:06:26;99251.16;;;16.87;82.30
16821;BME280;8527;49.740;6.604;2022-09-03T06:11:26;99258.94;;;16.95;82.25
16821;BME280;8527;49.740;6.604;2022-09-03T06:16:25;99254.78;;;16.99;81.52
16821;BME280;8527;49.740;6.604;2022-09-03T06:21:26;99254.69;;;17.06;82.42
16821;BME280;8527;49.740;6.604;2022-09-03T06:26:25;99252.38;;;17.28;80.60
16821;BME280;8527;49.740;6.604;2022-09-03T06:31:26;99253.72;;;17.38;81.50
16821;BME280;8527;49.740;6.604;2022-09-03T06:36:30;99253.94;;;17.67;80.01
16821;BME280;8527;49.740;6.604;2022-09-03T06:41:32;99254.84;;;17.91;77.97
16821;BME280;8527;49.740;6.604;2022-09-03T06:46:34;99258.31;;;17.80;75.01
16821;BME280;8527;49.740;6.604;2022-09-03T06:51:36;99253.22;;;18.02;73.97
16821;BME280;8527;49.740;6.604;2022-09-03T06:56:37;99254.44;;;17.76;72.54
16821;BME280;8527;49.740;6.604;2022-09-03T07:01:39;99264.75;;;17.60;73.79
16821;BME280;8527;49.740;6.604;2022-09-03T07:06:42;99265.91;;;17.95;73.68
16821;BME280;8527;49.740;6.604;2022-09-03T07:11:44;99262.03;;;18.09;73.21
16821;BME280;8527;49.740;6.604;2022-09-03T07:16:44;99270.34;;;18.32;74.21
16821;BME280;8527;49.740;6.604;2022-09-03T07:21:48;99270.78;;;18.17;70.67
16821;BME280;8527;49.740;6.604;2022-09-03T07:26:46;99269.84;;;18.11;70.40
16821;BME280;8527;49.740;6.604;2022-09-03T07:31:45;99273.84;;;18.32;71.49
16821;BME280;8527;49.740;6.604;2022-09-03T07:36:48;99281.38;;;18.66;70.25
16821;BME280;8527;49.740;6.604;2022-09-03T07:41:47;99288.94;;;18.57;67.77
16821;BME280;8527;49.740;6.604;2022-09-03T07:46:45;99277.47;;;18.38;68.93
16821;BME280;8527;49.740;6.604;2022-09-03T07:51:45;99277.72;;;18.36;68.93
16821;BME280;8527;49.740;6.604;2022-09-03T07:56:47;99282.16;;;19.14;67.34
16821;BME280;8527;49.740;6.604;2022-09-03T08:01:46;99291.19;;;19.78;64.55
16821;BME280;8527;49.740;6.604;2022-09-03T08:06:45;99292.56;;;19.22;66.63
16821;BME280;8527;49.740;6.604;2022-09-03T08:11:55;99294.16;;;19.35;67.25
16821;BME280;8527;49.740;6.604;2022-09-03T08:16:53;99291.91;;;19.44;67.50
16821;BME280;8527;49.740;6.604;2022-09-03T08:21:54;99307.09;;;19.79;67.70
16821;BME280;8527;49.740;6.604;2022-09-03T08:26:55;99301.09;;;20.18;67.65
16821;BME280;8527;49.740;6.604;2022-09-03T08:31:54;99289.91;;;21.17;65.97
16821;BME280;8527;49.740;6.604;2022-09-03T08:36:52;99305.56;;;21.87;64.87
16821;BME280;8527;49.740;6.604;2022-09-03T08:47:31;99297.22;;;21.89;65.41
16821;BME280;8527;49.740;6.604;2022-09-03T08:52:37;99301.72;;;22.43;64.76
16821;BME280;8527;49.740;6.604;2022-09-03T08:57:46;99291.84;;;22.97;65.28
16821;BME280;8527;49.740;6.604;2022-09-03T09:03:08;99293.22;;;23.58;65.12
16821;BME280;8527;49.740;6.604;2022-09-03T09:08:27;99301.38;;;23.95;63.72
16821;BME280;8527;49.740;6.604;2022-09-03T09:13:38;99295.94;;;23.79;64.50
16821;BME280;8527;49.740;6.604;2022-09-03T09:18:55;99293.75;;;23.66;64.73
16821;BME280;8527;49.740;6.604;2022-09-03T09:24:01;99301.38;;;23.95;64.60
16821;BME280;8527;49.740;6.604;2022-09-03T09:29:03;99300.09;;;24.23;62.85
16821;BME280;8527;49.740;6.604;2022-09-03T09:34:07;99301.72;;;24.24;63.15
16821;BME280;8527;49.740;6.604;2022-09-03T09:39:09;99308.75;;;24.51;63.78
16821;BME280;8527;49.740;6.604;2022-09-03T09:44:18;99311.13;;;25.15;61.59
16821;BME280;8527;49.740;6.604;2022-09-03T09:49:29;99302.75;;;25.67;60.61
16821;BME280;8527;49.740;6.604;2022-09-03T09:54:32;99307.97;;;25.53;60.01
16821;BME280;8527;49.740;6.604;2022-09-03T09:59:34;99308.72;;;24.88;61.20
16821;BME280;8527;49.740;6.604;2022-09-03T10:04:35;99310.91;;;24.85;61.01
16821;BME280;8527;49.740;6.604;2022-09-03T10:09:34;99307.81;;;25.28;60.12
16821;BME280;8527;49.740;6.604;2022-09-03T10:14:37;99300.13;;;25.96;58.31
16821;BME280;8527;49.740;6.604;2022-09-03T10:19:47;99291.84;;;26.47;57.74
16821;BME280;8527;49.740;6.604;2022-09-03T10:25:10;99294.13;;;26.39;58.52
16821;BME280;8527;49.740;6.604;2022-09-03T10:30:10;99288.38;;;26.41;57.66
16821;BME280;8527;49.740;6.604;2022-09-03T10:35:19;99288.09;;;26.43;57.47
16821;BME280;8527;49.740;6.604;2022-09-03T10:40:28;99273.81;;;27.10;55.39
16821;BME280;8527;49.740;6.604;2022-09-03T10:45:35;99269.94;;;26.92;55.12
16821;BME280;8527;49.740;6.604;2022-09-03T10:50:46;99259.13;;;27.30;54.40
16821;BME280;8527;49.740;6.604;2022-09-03T10:55:50;99260.22;;;26.56;54.47
16821;BME280;8527;49.740;6.604;2022-09-03T11:00:58;99251.09;;;25.72;58.02
16821;BME280;8527;49.740;6.604;2022-09-03T11:06:10;99247.78;;;26.15;56.68
16821;BME280;8527;49.740;6.604;2022-09-03T11:11:14;99243.16;;;26.16;56.44
16821;BME280;8527;49.740;6.604;2022-09-03T11:16:27;99245.88;;;26.16;57.07
16821;BME280;8527;49.740;6.604;2022-09-03T11:21:35;99253.66;;;26.33;57.16
16821;BME280;8527;49.740;6.604;2022-09-03T11:26:36;99253.00;;;26.71;56.67
16821;BME280;8527;49.740;6.604;2022-09-03T11:31:44;99243.97;;;26.51;56.94
16821;BME280;8527;49.740;6.604;2022-09-03T11:37:04;99238.81;;;26.49;56.98
16821;BME280;8527;49.740;6.604;2022-09-03T11:42:08;99247.25;;;26.13;60.53
16821;BME280;8527;49.740;6.604;2022-09-03T11:47:15;99255.47;;;25.12;70.42
16821;BME280;8527;49.740;6.604;2022-09-03T11:52:38;99259.59;;;24.94;67.83
16821;BME280;8527;49.740;6.604;2022-09-03T11:57:40;99269.97;;;24.56;71.04
16821;BME280;8527;49.740;6.604;2022-09-03T12:02:43;99290.50;;;23.69;73.67
16821;BME280;8527;49.740;6.604;2022-09-03T12:13:25;99304.66;;;23.17;76.17
16821;BME280;8527;49.740;6.604;2022-09-03T12:18:28;99298.84;;;21.90;74.96
16821;BME280;8527;49.740;6.604;2022-09-03T12:23:32;99299.16;;;21.94;74.91
16821;BME280;8527;49.740;6.604;2022-09-03T12:28:34;99297.16;;;21.84;76.41
16821;BME280;8527;49.740;6.604;2022-09-03T12:33:33;99304.09;;;22.02;77.68
16821;BME280;8527;49.740;6.604;2022-09-03T12:38:34;99305.25;;;21.84;83.50
16821;BME280;8527;49.740;6.604;2022-09-03T12:43:33;99322.59;;;21.65;83.12
16821;BME280;8527;49.740;6.604;2022-09-03T12:48:31;99323.84;;;21.80;83.06
16821;BME280;8527;49.740;6.604;2022-09-03T12:53:33;99328.66;;;22.00;82.38
16821;BME280;8527;49.740;6.604;2022-09-03T12:58:35;99312.03;;;22.14;83.35
16821;BME280;8527;49.740;6.604;2022-09-03T13:03:46;99315.81;;;22.13;85.54
16821;BME280;8527;49.740;6.604;2022-09-03T13:08:53;99325.88;;;21.90;86.87
16821;BME280;8527;49.740;6.604;2022-09-03T13:13:54;99338.88;;;21.98;91.43
16821;BME280;8527;49.740;6.604;2022-09-03T13:18:57;99332.53;;;22.10;90.21
16821;BME280;8527;49.740;6.604;2022-09-03T13:29:37;99329.25;;;22.35;89.34
16821;BME280;8527;49.740;6.604;2022-09-03T13:34:40;99333.59;;;22.36;90.90
16821;BME280;8527;49.740;6.604;2022-09-03T13:39:47;99328.38;;;22.57;90.23
16821;BME280;8527;49.740;6.604;2022-09-03T13:44:56;99331.69;;;22.37;89.51
16821;BME280;8527;49.740;6.604;2022-09-03T13:50:02;99323.13;;;22.17;90.69
16821;BME280;8527;49.740;6.604;2022-09-03T13:55:26;99324.69;;;22.08;89.97
16821;BME280;8527;49.740;6.604;2022-09-03T14:00:28;99327.03;;;21.72;92.68
16821;BME280;8527;49.740;6.604;2022-09-03T14:05:46;99325.44;;;21.54;92.86
16821;BME280;8527;49.740;6.604;2022-09-03T14:10:56;99322.59;;;21.88;93.34
16821;BME280;8527;49.740;6.604;2022-09-03T14:16:02;99320.78;;;21.49;94.79
16821;BME280;8527;49.740;6.604;2022-09-03T14:21:09;99324.03;;;21.96;94.40
16821;BME280;8527;49.740;6.604;2022-09-03T14:26:23;99318.66;;;22.28;89.40
16821;BME280;8527;49.740;6.604;2022-09-03T14:31:37;99318.84;;;22.49;94.28
16821;BME280;8527;49.740;6.604;2022-09-03T14:36:44;99318.53;;;22.45;91.76
16821;BME280;8527;49.740;6.604;2022-09-03T14:42:06;99324.88;;;22.61;94.35
16821;BME280;8527;49.740;6.604;2022-09-03T14:47:18;99334.13;;;22.71;94.92
16821;BME280;8527;49.740;6.604;2022-09-03T14:52:32;99322.38;;;22.22;87.13
16821;BME280;8527;49.740;6.604;2022-09-03T14:58:12;99321.78;;;22.15;88.26
16821;BME280;8527;49.740;6.604;2022-09-03T15:03:29;99330.41;;;22.44;87.42
16821;BME280;8527;49.740;6.604;2022-09-03T15:08:43;99327.25;;;22.53;85.76
16821;BME280;8527;49.740;6.604;2022-09-03T15:13:52;99326.34;;;22.80;82.19
16821;BME280;8527;49.740;6.604;2022-09-03T15:19:03;99324.69;;;22.73;80.22
16821;BME280;8527;49.740;6.604;2022-09-03T15:24:11;99324.53;;;22.53;83.21
16821;BME280;8527;49.740;6.604;2022-09-03T15:29:29;99319.22;;;22.63;83.69
16821;BME280;8527;49.740;6.604;2022-09-03T15:34:45;99318.00;;;22.86;85.56
16821;BME280;8527;49.740;6.604;2022-09-03T15:39:57;99322.34;;;22.87;87.98
16821;BME280;8527;49.740;6.604;2022-09-03T15:45:06;99323.47;;;22.92;87.76
16821;BME280;8527;49.740;6.604;2022-09-03T15:50:15;99320.22;;;22.89;87.86
16821;BME280;8527;49.740;6.604;2022-09-03T15:55:24;99316.38;;;22.85;87.21
16821;BME280;8527;49.740;6.604;2022-09-03T16:00:40;99318.53;;;22.78;89.06
16821;BME280;8527;49.740;6.604;2022-09-03T16:05:53;99328.47;;;22.72;89.62
16821;BME280;8527;49.740;6.604;2022-09-03T16:10:57;99322.78;;;22.69;90.28
16821;BME280;8527;49.740;6.604;2022-09-03T16:16:05;99322.78;;;22.69;90.02
16821;BME280;8527;49.740;6.604;2022-09-03T16:21:08;99319.44;;;22.56;90.56
16821;BME280;8527;49.740;6.604;2022-09-03T16:26:17;99325.38;;;22.53;89.44
16821;BME280;8527;49.740;6.604;2022-09-03T16:31:27;99313.63;;;22.42;91.19
16821;BME280;8527;49.740;6.604;2022-09-03T16:36:43;99314.59;;;22.31;87.79
16821;BME280;8527;49.740;6.604;2022-09-03T16:41:49;99327.66;;;22.39;88.04
16821;BME280;8527;49.740;6.604;2022-09-03T16:47:03;99339.13;;;22.24;88.52
16821;BME280;8527;49.740;6.604;2022-09-03T16:52:11;99349.81;;;22.09;88.55
16821;BME280;8527;49.740;6.604;2022-09-03T16:57:20;99364.59;;;22.01;89.07
16821;BME280;8527;49.740;6.604;2022-09-03T17:02:40;99367.09;;;22.08;88.00
16821;BME280;8527;49.740;6.604;2022-09-03T17:08:02;99370.94;;;21.89;87.71
16821;BME280;8527;49.740;6.604;2022-09-03T17:13:14;99364.94;;;21.82;89.75
16821;BME280;8527;49.740;6.604;2022-09-03T17:18:28;99364.88;;;21.77;87.73
16821;BME280;8527;49.740;6.604;2022-09-03T17:23:44;99359.09;;;21.68;88.82
16821;BME280;8527;49.740;6.604;2022-09-03T17:28:56;99356.56;;;21.61;89.42
16821;BME280;8527;49.740;6.604;2022-09-03T17:34:08;99366.72;;;21.32;90.76
16821;BME280;8527;49.740;6.604;2022-09-03T17:39:34;99372.63;;;21.29;90.78
16821;BME280;8527;49.740;6.604;2022-09-03T17:44:46;99368.19;;;21.22;91.74
16821;BME280;8527;49.740;6.604;2022-09-03T17:49:54;99390.63;;;21.06;91.89
16821;BME280;8527;49.740;6.604;2022-09-03T17:54:58;99383.94;;;21.08;91.80
16821;BME280;8527;49.740;6.604;2022-09-03T18:00:07;99395.88;;;20.96;92.08
16821;BME280;8527;49.740;6.604;2022-09-03T18:05:18;99405.13;;;20.83;92.98
16821;BME280;8527;49.740;6.604;2022-09-03T18:10:26;99411.88;;;20.68;93.99
16821;BME280;8527;49.740;6.604;2022-09-03T18:15:31;99414.56;;;20.68;93.29
16821;BME280;8527;49.740;6.604;2022-09-03T18:20:42;99416.25;;;20.57;93.19
16821;BME280;8527;49.740;6.604;2022-09-03T18:25:57;99439.28;;;20.48;94.07
16821;BME280;8527;49.740;6.604;2022-09-03T18:31:12;99435.38;;;20.27;94.76
16821;BME280;8527;49.740;6.604;2022-09-03T18:36:27;99441.25;;;20.23;93.50
16821;BME280;8527;49.740;6.604;2022-09-03T18:41:50;99449.56;;;20.22;94.56
16821;BME280;8527;49.740;6.604;2022-09-03T18:47:16;99452.88;;;20.12;93.49
16821;BME280;8527;49.740;6.604;2022-09-03T18:52:39;99452.31;;;20.10;92.85
16821;BME280;8527;49.740;6.604;2022-09-03T18:58:05;99472.50;;;19.95;93.65
16821;BME280;8527;49.740;6.604;2022-09-03T19:03:35;99480.44;;;20.02;93.08
16821;BME280;8527;49.740;6.604;2022-09-03T19:08:59;99482.56;;;20.00;94.11
16821;BME280;8527;49.740;6.604;2022-09-03T19:14:25;99485.00;;;19.90;93.90
16821;BME280;8527;49.740;6.604;2022-09-03T19:19:47;99489.00;;;19.99;93.64
16821;BME280;8527;49.740;6.604;2022-09-03T19:25:10;99493.78;;;19.85;94.84
16821;BME280;8527;49.740;6.604;2022-09-03T19:30:26;99494.84;;;19.84;93.97
16821;BME280;8527;49.740;6.604;2022-09-03T19:35:42;99506.09;;;19.81;95.57
16821;BME280;8527;49.740;6.604;2022-09-03T19:41:06;99508.91;;;19.74;95.34
16821;BME280;8527;49.740;6.604;2022-09-03T19:46:31;99502.69;;;19.62;94.46
16821;BME280;8527;49.740;6.604;2022-09-03T19:51:49;99518.28;;;19.60;94.25
16821;BME280;8527;49.740;6.604;2022-09-03T19:57:05;99521.19;;;19.58;94.46
16821;BME280;8527;49.740;6.604;2022-09-03T20:02:17;99526.69;;;19.51;93.02
16821;BME280;8527;49.740;6.604;2022-09-03T20:07:28;99519.66;;;19.50;92.74
16821;BME280;8527;49.740;6.604;2022-09-03T20:12:48;99519.06;;;19.36;96.63
16821;BME280;8527;49.740;6.604;2022-09-03T20:17:59;99525.50;;;19.23;97.20
16821;BME280;8527;49.740;6.604;2022-09-03T20:23:03;99520.22;;;19.17;95.42
16821;BME280;8527;49.740;6.604;2022-09-03T20:28:13;99521.59;;;19.07;95.58
16821;BME280;8527;49.740;6.604;2022-09-03T20:33:24;99525.59;;;18.86;99.14
16821;BME280;8527;49.740;6.604;2022-09-03T20:39:02;99529.56;;;18.83;96.19
16821;BME280;8527;49.740;6.604;2022-09-03T20:44:34;99533.09;;;18.84;95.83
16821;BME280;8527;49.740;6.604;2022-09-03T20:49:41;99532.56;;;18.75;97.77
16821;BME280;8527;49.740;6.604;2022-09-03T20:54:51;99546.06;;;18.56;99.10
16821;BME280;8527;49.740;6.604;2022-09-03T21:00:03;99534.44;;;18.44;99.96
16821;BME280;8527;49.740;6.604;2022-09-03T21:05:09;99548.66;;;18.45;97.87
16821;BME280;8527;49.740;6.604;2022-09-03T21:10:16;99545.63;;;18.41;98.52
16821;BME280;8527;49.740;6.604;2022-09-03T21:15:25;99555.31;;;18.42;97.89
16821;BME280;8527;49.740;6.604;2022-09-03T21:20:34;99561.91;;;18.27;96.03
16821;BME280;8527;49.740;6.604;2022-09-03T21:25:39;99550.25;;;18.34;97.17
16821;BME280;8527;49.740;6.604;2022-09-03T21:30:48;99557.41;;;18.03;99.91
16821;BME280;8527;49.740;6.604;2022-09-03T21:35:51;99565.28;;;17.97;99.24
16821;BME280;8527;49.740;6.604;2022-09-03T21:40:57;99565.19;;;17.85;99.21
16821;BME280;8527;49.740;6.604;2022-09-03T21:46:07;99561.69;;;17.85;98.77
16821;BME280;8527;49.740;6.604;2022-09-03T21:51:12;99573.31;;;17.79;96.52
16821;BME280;8527;49.740;6.604;2022-09-03T22:02:01;99582.00;;;17.74;98.21
16821;BME280;8527;49.740;6.604;2022-09-03T22:07:08;99581.53;;;17.58;99.34
16821;BME280;8527;49.740;6.604;2022-09-03T22:12:15;99591.47;;;17.51;99.81
16821;BME280;8527;49.740;6.604;2022-09-03T22:17:21;99593.03;;;17.40;100.00
16821;BME280;8527;49.740;6.604;2022-09-03T22:22:28;99596.09;;;17.37;98.82
16821;BME280;8527;49.740;6.604;2022-09-03T22:27:43;99597.09;;;17.43;97.32
16821;BME280;8527;49.740;6.604;2022-09-03T22:32:52;99603.31;;;17.43;98.24
16821;BME280;8527;49.740;6.604;2022-09-03T22:38:16;99595.31;;;17.37;96.27
16821;BME280;8527;49.740;6.604;2022-09-03T22:43:38;99604.16;;;17.37;98.89
16821;BME280;8527;49.740;6.604;2022-09-03T22:48:58;99608.91;;;17.35;94.92
16821;BME280;8527;49.740;6.604;2022-09-03T22:54:12;99621.28;;;17.36;97.65
16821;BME280;8527;49.740;6.604;2022-09-03T22:59:18;99617.06;;;17.22;97.00
16821;BME280;8527;49.740;6.604;2022-09-03T23:04:25;99624.69;;;17.18;96.36
16821;BME280;8527;49.740;6.604;2022-09-03T23:09:29;99625.41;;;17.00;97.80
16821;BME280;8527;49.740;6.604;2022-09-03T23:14:36;99627.47;;;17.05;99.65
16821;BME280;8527;49.740;6.604;2022-09-03T23:19:53;99635.72;;;16.96;98.42
16821;BME280;8527;49.740;6.604;2022-09-03T23:24:56;99638.66;;;16.88;98.55
16821;BME280;8527;49.740;6.604;2022-09-03T23:29:59;99641.72;;;16.92;98.71
16821;BME280;8527;49.740;6.604;2022-09-03T23:35:02;99655.34;;;16.83;98.80
16821;BME280;8527;49.740;6.604;2022-09-03T23:40:22;99657.84;;;16.85;99.81
16821;BME280;8527;49.740;6.604;2022-09-03T23:45:29;99662.97;;;16.86;99.36
16821;BME280;8527;49.740;6.604;2022-09-03T23:50:43;99672.69;;;16.74;99.54
16821;BME280;8527;49.740;6.604;2022-09-03T23:55:55;99674.34;;;16.68;100.00
